´╗┐Gebruik voortaan onze nieuwe domeinnaam: https://weerstationberlare.be

Webcam Zuid-West  Webcam Zuid-West


Apparatuur in gebruik:

Peet Bros Ultimeter 2100


METAR rapporten vliegvelden

   
EBBR - Brussels International Airport, Belgium
Afstand tot: W 14 km
Gewijzigd: 02-12-2022 17:20
Bewolking  
Bewolking  
   Wind: NO 18.5 km/h
Wind: NO 18.5 km/h
Temperatuur: 3°C
Voelt als: -1°C
Dauwpunt: 0°C
Vochtigheid: 81%
Barometer: 1022 hPa
Bewolking: Bewolking
Zicht: 8 km
Bewolking: Bewolking 1100 ft
EBBR 021620Z 05010KT 8000 OVC011 03/00 Q1022 NOSIG
EBBE - Beauvechain (Bevekom), Belgium
Afstand tot: ZZO 17 km
Gewijzigd: 02-12-2022 17:03
Bewolking  
Bewolking  
   Wind: NO 22.2 km/h
Wind: NO 22.2 km/h
Temperatuur: 2°C
Voelt als: -3°C
Dauwpunt: 1°C
Vochtigheid: 93%
Barometer: 1021 hPa
Bewolking: Bewolking
Zicht: 6 km
Bewolking: Gedeeltelijk bewolkt 800 ft,
Bewolking 1000 ft
EBBE 021603Z 05012KT 6000 SCT008 OVC010 02/01 Q1021 GRN FCST CANCEL
EBDT - Schaffen, Belgium
Afstand tot: ONO 29 km
Gewijzigd: 02-12-2022 16:55
Bewolking  
Bewolking  
   Wind: NO 18.5 km/h
Wind: NO 18.5 km/h
Temperatuur: 3°C
Voelt als: -1°C
Dauwpunt: 0°C
Vochtigheid: 81%
Barometer: 1022 hPa
Bewolking: Bewolking
Zicht: 8 km
Bewolking: Bewolking 1300 ft
EBDT 021555Z AUTO 05010KT 8000 OVC013/// 03/00 Q1022 GRN
EBAW - Antwerp/Deurne, Belgium
Afstand tot: NNW 38 km
Gewijzigd: 02-12-2022 17:20
Bewolking  
Bewolking  
   Wind: NO 18.5 km/h
Wind: NO 18.5 km/h
Temperatuur: 3°C
Voelt als: -1°C
Dauwpunt: 0°C
Vochtigheid: 81%
Barometer: 1022 hPa
Bewolking: Bewolking
Zicht: meer dan 10 km
Bewolking: Gedeeltelijk bewolkt 1300 ft,
Bewolking 1600 ft
EBAW 021620Z 04010KT 9999 SCT013 OVC016 03/M00 Q1022 NOSIG
EBCI - Charleroi/Gosselies, Belgium
Afstand tot: ZZW 51 km
Gewijzigd: 02-12-2022 17:20
Wat regen mogelijk, Nevel, Grotendeels bewolkt  
Wat regen mogelijk, Nevel, Grotendeels bewolkt  
   Wind: NO 22.2 km/h
Wind: NO 22.2 km/h
Temperatuur: 2°C
Voelt als: -3°C
Dauwpunt: 1°C
Vochtigheid: 93%
Barometer: 1020 hPa
Bewolking: Grotendeels bewolkt
Zicht: 4 km
Bewolking: Gedeeltelijk bewolkt 300 ft,
Grotendeels bewolkt 400 ft
EBCI 021620Z 04012KT 3500 -RA BR SCT003 BKN004 02/01 Q1020 TEMPO 2000 BR
EBLG - Bierset/Liege, Belgium
Afstand tot: OZO 60 km
Gewijzigd: 02-12-2022 17:20
Nevel, Grotendeels bewolkt  
Nevel, Grotendeels bewolkt  
   Wind: NO 22.2 km/h
Wind: NO 22.2 km/h
Temperatuur: 2°C
Voelt als: -3°C
Dauwpunt: 0°C
Vochtigheid: 87%
Barometer: 1020 hPa
Bewolking: Grotendeels bewolkt
Zicht: 4 km
Bewolking: Grotendeels bewolkt 600 ft,
Grotendeels bewolkt 800 ft
EBLG 021620Z 04012KT 020V080 4000 BR BKN006 BKN008 02/00 Q1020 NOSIG

Script ontwikkeld door  Saratoga-weather.org Aangepast voor de template door  Weerstation Leuven

WWW
LOGO

WWW.UITBERGEN.NET

Schild